Airfield :
LOGIN :

Register | Disclaimer

   EN    FR    IT 

 










Legend :    VFR   Marginal VFR   IFR   Intensive IFR   Very Intensive IFR
Visi :
Ceiling :
>= 8 km
>= 3000ft
5 to 8 km
1000 to 3000 ft
1500m to 5 km
500 to 1000 ft
800 to 1500m
200 to 500 ft
< 800m
< 200 ft
Symbols :   Thunderstorms  Fog  Heavy snow  Heavy precipitations  Wind > 20 kt
SIGMETs :     Misc.  Thunderstorms  Icing  Turbulence  Mountain Waves  Volcanic Ashes






- Airport Elevation : 47 ft
- IATA code : BDS


LIBR - Casale Arpt. Brindisi

CURRENT METAR :
  • 130920Z 18022G32KT 9999 SCT025 20/14 Q1001

EXPIRED METARs :
  • 130850Z 18020KT 150V210 9999 R31/1400D SCT025 20/14 Q1001
  • 130820Z 18022KT 9999 R31/1400U SCT030 20/14 Q1000
  • 130750Z 18018G28KT 9999 R31/1400U FEW030 19/13 Q1000
  • 130720Z 18018KT 9999 FEW030 19/13 Q0999
  • 130650Z 17017KT 9999 SCT030 18/13 Q0999

TAF TAF LIBR
Valid from the 13 at 06:00 until the 14 at 06:00 UTC


130500Z 1306/1406 18015KT 9999 SCT020 SCT050
TEMPO 1306/1312 18018G28KT
TEMPO 1306/1309 4000 TSRA
BECMG 1316/1318 VRB05KT



MET'MAP, your aeronautical weather chart ! - Copyright ORBIFLY December 2007 - Disclaimer

ORBIFLY MET'MAP TEAM :

Programming & Development : Alexandra Zaïnal
Concept & Development : Baudouin d'Aumeries
Co-Development & Prog : Marc-Olivier Méhu
Technical & hardware support : Manuel Goepfert

Contact : metmap@orbifly.com




SOURCES & CREDITS :

   NOAA